sensor_id;sensor_type;location;lat;lon;timestamp;pressure;altitude;pressure_sealevel;temperature;humidity
63907;BME280;50075;49.484;11.238;2024-02-26T00:01:52;96287.44;;;6.79;100.00
63907;BME280;50075;49.484;11.238;2024-02-26T00:04:17;96288.19;;;6.85;100.00
63907;BME280;50075;49.484;11.238;2024-02-26T00:06:43;96289.19;;;6.76;100.00
63907;BME280;50075;49.484;11.238;2024-02-26T00:09:09;96289.19;;;6.75;100.00
63907;BME280;50075;49.484;11.238;2024-02-26T00:11:37;96288.53;;;6.63;100.00
63907;BME280;50075;49.484;11.238;2024-02-26T00:14:03;96284.31;;;6.58;100.00
63907;BME280;50075;49.484;11.238;2024-02-26T00:16:29;96288.69;;;6.51;100.00
63907;BME280;50075;49.484;11.238;2024-02-26T00:18:54;96284.34;;;6.53;100.00
63907;BME280;50075;49.484;11.238;2024-02-26T00:21:19;96289.63;;;6.47;100.00
63907;BME280;50075;49.484;11.238;2024-02-26T00:23:45;96285.50;;;6.33;100.00
63907;BME280;50075;49.484;11.238;2024-02-26T00:26:10;96284.22;;;5.98;100.00
63907;BME280;50075;49.484;11.238;2024-02-26T00:28:36;96285.16;;;5.91;100.00
63907;BME280;50075;49.484;11.238;2024-02-26T00:31:01;96284.28;;;5.90;100.00
63907;BME280;50075;49.484;11.238;2024-02-26T00:33:28;96286.16;;;5.80;100.00
63907;BME280;50075;49.484;11.238;2024-02-26T00:35:53;96287.84;;;5.81;100.00
63907;BME280;50075;49.484;11.238;2024-02-26T00:38:18;96280.16;;;5.75;100.00
63907;BME280;50075;49.484;11.238;2024-02-26T00:40:44;96270.94;;;5.58;100.00
63907;BME280;50075;49.484;11.238;2024-02-26T00:43:09;96270.72;;;5.74;100.00
63907;BME280;50075;49.484;11.238;2024-02-26T00:45:35;96272.28;;;5.88;100.00
63907;BME280;50075;49.484;11.238;2024-02-26T00:48:00;96265.38;;;5.91;100.00
63907;BME280;50075;49.484;11.238;2024-02-26T00:50:33;96257.56;;;5.97;100.00
63907;BME280;50075;49.484;11.238;2024-02-26T00:52:58;96259.28;;;5.97;100.00
63907;BME280;50075;49.484;11.238;2024-02-26T00:55:24;96266.19;;;5.96;100.00
63907;BME280;50075;49.484;11.238;2024-02-26T00:57:49;96254.91;;;6.05;100.00
63907;BME280;50075;49.484;11.238;2024-02-26T01:00:15;96255.00;;;5.96;100.00
63907;BME280;50075;49.484;11.238;2024-02-26T01:02:40;96262.81;;;5.91;100.00
63907;BME280;50075;49.484;11.238;2024-02-26T01:05:07;96252.38;;;5.97;100.00
63907;BME280;50075;49.484;11.238;2024-02-26T01:07:34;96252.41;;;5.96;100.00
63907;BME280;50075;49.484;11.238;2024-02-26T01:10:02;96255.88;;;5.93;100.00
63907;BME280;50075;49.484;11.238;2024-02-26T01:12:27;96258.59;;;5.82;100.00
63907;BME280;50075;49.484;11.238;2024-02-26T01:14:52;96263.25;;;5.51;100.00
63907;BME280;50075;49.484;11.238;2024-02-26T01:17:18;96273.78;;;5.32;100.00
63907;BME280;50075;49.484;11.238;2024-02-26T01:19:43;96266.03;;;5.32;100.00
63907;BME280;50075;49.484;11.238;2024-02-26T01:22:09;96263.47;;;5.30;100.00
63907;BME280;50075;49.484;11.238;2024-02-26T01:24:34;96263.78;;;4.98;100.00
63907;BME280;50075;49.484;11.238;2024-02-26T01:27:00;96265.41;;;5.08;100.00
63907;BME280;50075;49.484;11.238;2024-02-26T01:29:25;96263.50;;;5.27;100.00
63907;BME280;50075;49.484;11.238;2024-02-26T01:31:50;96263.44;;;5.33;100.00
63907;BME280;50075;49.484;11.238;2024-02-26T01:34:16;96261.66;;;5.40;100.00
63907;BME280;50075;49.484;11.238;2024-02-26T01:36:43;96265.16;;;5.36;100.00
63907;BME280;50075;49.484;11.238;2024-02-26T01:39:08;96270.22;;;5.42;100.00
63907;BME280;50075;49.484;11.238;2024-02-26T01:41:36;96275.44;;;5.39;100.00
63907;BME280;50075;49.484;11.238;2024-02-26T01:44:02;96267.06;;;5.17;100.00
63907;BME280;50075;49.484;11.238;2024-02-26T01:46:28;96274.78;;;5.17;100.00
63907;BME280;50075;49.484;11.238;2024-02-26T01:48:53;96267.66;;;5.41;100.00
63907;BME280;50075;49.484;11.238;2024-02-26T01:51:19;96266.91;;;5.31;100.00
63907;BME280;50075;49.484;11.238;2024-02-26T01:53:45;96267.72;;;5.34;100.00
63907;BME280;50075;49.484;11.238;2024-02-26T01:56:11;96262.97;;;4.92;100.00
63907;BME280;50075;49.484;11.238;2024-02-26T01:58:37;96258.91;;;4.62;100.00
63907;BME280;50075;49.484;11.238;2024-02-26T02:01:03;96247.00;;;4.50;100.00
63907;BME280;50075;49.484;11.238;2024-02-26T02:03:29;96260.59;;;4.67;100.00
63907;BME280;50075;49.484;11.238;2024-02-26T02:05:55;96263.88;;;4.87;100.00
63907;BME280;50075;49.484;11.238;2024-02-26T02:08:21;96256.06;;;4.96;100.00
63907;BME280;50075;49.484;11.238;2024-02-26T02:10:49;96253.47;;;4.98;100.00
63907;BME280;50075;49.484;11.238;2024-02-26T02:13:15;96243.94;;;5.07;100.00
63907;BME280;50075;49.484;11.238;2024-02-26T02:15:41;96250.34;;;5.52;100.00
63907;BME280;50075;49.484;11.238;2024-02-26T02:18:06;96253.72;;;5.59;100.00
63907;BME280;50075;49.484;11.238;2024-02-26T02:20:35;96254.34;;;5.78;100.00
63907;BME280;50075;49.484;11.238;2024-02-26T02:23:01;96250.31;;;5.58;100.00
63907;BME280;50075;49.484;11.238;2024-02-26T02:25:27;96251.47;;;5.29;100.00
63907;BME280;50075;49.484;11.238;2024-02-26T02:27:53;96252.41;;;5.19;100.00
63907;BME280;50075;49.484;11.238;2024-02-26T02:30:21;96249.81;;;5.20;100.00
63907;BME280;50075;49.484;11.238;2024-02-26T02:32:46;96245.50;;;5.24;100.00
63907;BME280;50075;49.484;11.238;2024-02-26T02:35:12;96253.25;;;5.23;100.00
63907;BME280;50075;49.484;11.238;2024-02-26T02:37:37;96255.81;;;5.24;100.00
63907;BME280;50075;49.484;11.238;2024-02-26T02:40:03;96252.25;;;5.34;100.00
63907;BME280;50075;49.484;11.238;2024-02-26T02:42:28;96254.66;;;5.52;100.00
63907;BME280;50075;49.484;11.238;2024-02-26T02:44:53;96254.44;;;5.72;100.00
63907;BME280;50075;49.484;11.238;2024-02-26T02:47:19;96249.22;;;5.73;100.00
63907;BME280;50075;49.484;11.238;2024-02-26T02:49:44;96244.75;;;5.90;100.00
63907;BME280;50075;49.484;11.238;2024-02-26T02:52:09;96244.59;;;6.02;100.00
63907;BME280;50075;49.484;11.238;2024-02-26T02:54:35;96243.63;;;6.11;100.00
63907;BME280;50075;49.484;11.238;2024-02-26T02:57:02;96244.50;;;6.13;100.00
63907;BME280;50075;49.484;11.238;2024-02-26T02:59:28;96241.97;;;6.08;100.00
63907;BME280;50075;49.484;11.238;2024-02-26T03:01:53;96253.91;;;6.16;100.00
63907;BME280;50075;49.484;11.238;2024-02-26T03:04:19;96248.59;;;6.28;100.00
63907;BME280;50075;49.484;11.238;2024-02-26T03:06:44;96250.84;;;6.50;100.00
63907;BME280;50075;49.484;11.238;2024-02-26T03:09:09;96254.97;;;5.99;100.00
63907;BME280;50075;49.484;11.238;2024-02-26T03:11:35;96248.50;;;6.33;100.00
63907;BME280;50075;49.484;11.238;2024-02-26T03:14:00;96253.75;;;6.28;100.00
63907;BME280;50075;49.484;11.238;2024-02-26T03:16:26;96254.56;;;6.30;100.00
63907;BME280;50075;49.484;11.238;2024-02-26T03:18:51;96249.50;;;6.22;100.00
63907;BME280;50075;49.484;11.238;2024-02-26T03:21:16;96254.38;;;5.77;100.00
63907;BME280;50075;49.484;11.238;2024-02-26T03:23:41;96249.69;;;5.36;100.00
63907;BME280;50075;49.484;11.238;2024-02-26T03:26:07;96241.72;;;5.55;100.00
63907;BME280;50075;49.484;11.238;2024-02-26T03:28:33;96244.06;;;5.73;100.00
63907;BME280;50075;49.484;11.238;2024-02-26T03:31:00;96228.97;;;5.44;100.00
63907;BME280;50075;49.484;11.238;2024-02-26T03:33:25;96234.00;;;5.52;100.00
63907;BME280;50075;49.484;11.238;2024-02-26T03:35:51;96229.94;;;5.33;100.00
63907;BME280;50075;49.484;11.238;2024-02-26T03:38:16;96232.44;;;5.41;100.00
63907;BME280;50075;49.484;11.238;2024-02-26T03:40:42;96238.56;;;5.31;100.00
63907;BME280;50075;49.484;11.238;2024-02-26T03:43:07;96241.69;;;5.58;100.00
63907;BME280;50075;49.484;11.238;2024-02-26T03:45:33;96238.09;;;5.71;100.00
63907;BME280;50075;49.484;11.238;2024-02-26T03:47:58;96246.34;;;6.00;100.00
63907;BME280;50075;49.484;11.238;2024-02-26T03:50:24;96241.31;;;5.88;100.00
63907;BME280;50075;49.484;11.238;2024-02-26T03:52:49;96239.44;;;6.04;100.00
63907;BME280;50075;49.484;11.238;2024-02-26T03:55:15;96245.41;;;6.09;100.00
63907;BME280;50075;49.484;11.238;2024-02-26T03:57:40;96239.47;;;5.99;100.00
63907;BME280;50075;49.484;11.238;2024-02-26T04:00:06;96239.38;;;5.34;100.00
63907;BME280;50075;49.484;11.238;2024-02-26T04:02:31;96232.53;;;5.33;100.00
63907;BME280;50075;49.484;11.238;2024-02-26T04:04:57;96235.00;;;5.40;100.00
63907;BME280;50075;49.484;11.238;2024-02-26T04:07:22;96239.22;;;5.49;100.00
63907;BME280;50075;49.484;11.238;2024-02-26T04:09:47;96243.84;;;5.17;100.00
63907;BME280;50075;49.484;11.238;2024-02-26T04:12:13;96249.94;;;5.08;100.00
63907;BME280;50075;49.484;11.238;2024-02-26T04:14:38;96246.69;;;4.89;100.00
63907;BME280;50075;49.484;11.238;2024-02-26T04:17:04;96243.28;;;4.87;100.00
63907;BME280;50075;49.484;11.238;2024-02-26T04:19:29;96246.63;;;4.95;100.00
63907;BME280;50075;49.484;11.238;2024-02-26T04:21:54;96250.13;;;4.88;100.00
63907;BME280;50075;49.484;11.238;2024-02-26T04:24:20;96253.69;;;4.73;100.00
63907;BME280;50075;49.484;11.238;2024-02-26T04:26:45;96257.13;;;4.75;100.00
63907;BME280;50075;49.484;11.238;2024-02-26T04:29:10;96260.53;;;4.75;100.00
63907;BME280;50075;49.484;11.238;2024-02-26T04:31:37;96264.59;;;5.04;100.00
63907;BME280;50075;49.484;11.238;2024-02-26T04:34:02;96267.16;;;5.03;100.00
63907;BME280;50075;49.484;11.238;2024-02-26T04:36:28;96273.28;;;4.92;100.00
63907;BME280;50075;49.484;11.238;2024-02-26T04:38:53;96270.03;;;4.68;100.00
63907;BME280;50075;49.484;11.238;2024-02-26T04:41:21;96260.59;;;4.67;100.00
63907;BME280;50075;49.484;11.238;2024-02-26T04:43:47;96272.56;;;4.73;100.00
63907;BME280;50075;49.484;11.238;2024-02-26T04:46:12;96270.88;;;4.71;100.00
63907;BME280;50075;49.484;11.238;2024-02-26T04:48:37;96280.19;;;4.87;100.00
63907;BME280;50075;49.484;11.238;2024-02-26T04:51:04;96283.56;;;4.94;100.00
63907;BME280;50075;49.484;11.238;2024-02-26T04:53:29;96286.25;;;4.81;100.00
63907;BME280;50075;49.484;11.238;2024-02-26T04:55:54;96283.69;;;4.78;100.00
63907;BME280;50075;49.484;11.238;2024-02-26T04:58:20;96290.41;;;4.98;100.00
63907;BME280;50075;49.484;11.238;2024-02-26T05:00:45;96283.50;;;5.02;100.00
63907;BME280;50075;49.484;11.238;2024-02-26T05:03:10;96279.38;;;4.80;100.00
63907;BME280;50075;49.484;11.238;2024-02-26T05:05:42;96289.66;;;4.85;100.00
63907;BME280;50075;49.484;11.238;2024-02-26T05:08:07;96287.06;;;4.88;100.00
63907;BME280;50075;49.484;11.238;2024-02-26T05:10:33;96296.50;;;4.88;100.00
63907;BME280;50075;49.484;11.238;2024-02-26T05:12:58;96287.97;;;4.81;100.00
63907;BME280;50075;49.484;11.238;2024-02-26T05:15:23;96291.44;;;4.77;100.00
63907;BME280;50075;49.484;11.238;2024-02-26T05:17:49;96290.63;;;4.70;100.00
63907;BME280;50075;49.484;11.238;2024-02-26T05:20:14;96283.69;;;4.78;100.00
63907;BME280;50075;49.484;11.238;2024-02-26T05:22:39;96287.22;;;4.66;100.00
63907;BME280;50075;49.484;11.238;2024-02-26T05:25:05;96287.16;;;4.74;100.00
63907;BME280;50075;49.484;11.238;2024-02-26T05:27:30;96283.78;;;4.66;100.00
63907;BME280;50075;49.484;11.238;2024-02-26T05:29:56;96288.91;;;4.69;100.00
63907;BME280;50075;49.484;11.238;2024-02-26T05:32:21;96292.22;;;4.84;100.00
63907;BME280;50075;49.484;11.238;2024-02-26T05:34:47;96286.19;;;4.88;100.00
63907;BME280;50075;49.484;11.238;2024-02-26T05:37:12;96285.44;;;4.73;100.00
63907;BME280;50075;49.484;11.238;2024-02-26T05:39:37;96291.50;;;4.69;100.00
63907;BME280;50075;49.484;11.238;2024-02-26T05:42:04;96293.19;;;4.73;100.00
63907;BME280;50075;49.484;11.238;2024-02-26T05:44:29;96288.91;;;4.71;100.00
63907;BME280;50075;49.484;11.238;2024-02-26T05:46:54;96281.19;;;4.67;100.00
63907;BME280;50075;49.484;11.238;2024-02-26T05:49:20;96291.50;;;4.66;100.00
63907;BME280;50075;49.484;11.238;2024-02-26T05:51:46;96294.81;;;4.80;100.00
63907;BME280;50075;49.484;11.238;2024-02-26T05:54:12;96290.63;;;4.72;100.00
63907;BME280;50075;49.484;11.238;2024-02-26T05:56:37;96303.50;;;4.68;100.00
63907;BME280;50075;49.484;11.238;2024-02-26T05:59:02;96303.41;;;4.82;100.00
63907;BME280;50075;49.484;11.238;2024-02-26T06:01:28;96296.63;;;4.71;100.00
63907;BME280;50075;49.484;11.238;2024-02-26T06:03:53;96302.53;;;4.84;100.00
63907;BME280;50075;49.484;11.238;2024-02-26T06:06:18;96299.06;;;4.91;100.00
63907;BME280;50075;49.484;11.238;2024-02-26T06:08:44;96304.25;;;4.85;100.00
63907;BME280;50075;49.484;11.238;2024-02-26T06:11:09;96309.47;;;4.75;100.00
63907;BME280;50075;49.484;11.238;2024-02-26T06:13:35;96317.72;;;5.18;100.00
63907;BME280;50075;49.484;11.238;2024-02-26T06:16:01;96314.25;;;5.20;100.00
63907;BME280;50075;49.484;11.238;2024-02-26T06:18:26;96306.75;;;4.94;100.00
63907;BME280;50075;49.484;11.238;2024-02-26T06:20:51;96315.38;;;4.91;100.00
63907;BME280;50075;49.484;11.238;2024-02-26T06:23:17;96313.72;;;4.81;100.00
63907;BME280;50075;49.484;11.238;2024-02-26T06:25:42;96316.13;;;5.01;100.00
63907;BME280;50075;49.484;11.238;2024-02-26T06:28:08;96323.78;;;5.12;100.00
63907;BME280;50075;49.484;11.238;2024-02-26T06:30:34;96325.31;;;5.35;100.00
63907;BME280;50075;49.484;11.238;2024-02-26T06:32:59;96328.28;;;5.81;100.00
63907;BME280;50075;49.484;11.238;2024-02-26T06:35:25;96322.47;;;5.62;100.00
63907;BME280;50075;49.484;11.238;2024-02-26T06:37:50;96343.22;;;6.29;100.00
63907;BME280;50075;49.484;11.238;2024-02-26T06:40:18;96346.81;;;7.35;100.00
63907;BME280;50075;49.484;11.238;2024-02-26T06:42:44;96343.06;;;7.55;100.00
63907;BME280;50075;49.484;11.238;2024-02-26T06:45:09;96328.66;;;6.85;100.00
63907;BME280;50075;49.484;11.238;2024-02-26T06:47:35;96330.03;;;6.49;100.00
63907;BME280;50075;49.484;11.238;2024-02-26T06:50:00;96335.84;;;6.66;100.00
63907;BME280;50075;49.484;11.238;2024-02-26T06:52:26;96332.47;;;6.62;100.00
63907;BME280;50075;49.484;11.238;2024-02-26T06:54:52;96333.72;;;6.31;100.00
63907;BME280;50075;49.484;11.238;2024-02-26T06:57:19;96338.50;;;5.89;100.00
63907;BME280;50075;49.484;11.238;2024-02-26T06:59:45;96342.16;;;5.69;100.00
63907;BME280;50075;49.484;11.238;2024-02-26T07:02:15;96346.31;;;5.84;100.00
63907;BME280;50075;49.484;11.238;2024-02-26T07:04:41;96347.34;;;5.67;100.00
63907;BME280;50075;49.484;11.238;2024-02-26T07:07:07;96346.44;;;5.70;100.00
63907;BME280;50075;49.484;11.238;2024-02-26T07:09:32;96349.72;;;5.86;100.00
63907;BME280;50075;49.484;11.238;2024-02-26T07:11:58;96353.50;;;5.52;100.00
63907;BME280;50075;49.484;11.238;2024-02-26T07:14:23;96350.78;;;5.68;100.00
63907;BME280;50075;49.484;11.238;2024-02-26T07:16:49;96346.34;;;5.78;100.00
63907;BME280;50075;49.484;11.238;2024-02-26T07:19:15;96353.97;;;5.90;100.00
63907;BME280;50075;49.484;11.238;2024-02-26T07:21:40;96354.16;;;5.75;100.00
63907;BME280;50075;49.484;11.238;2024-02-26T07:24:06;96369.44;;;5.90;100.00
63907;BME280;50075;49.484;11.238;2024-02-26T07:26:31;96361.69;;;5.92;100.00
63907;BME280;50075;49.484;11.238;2024-02-26T07:28:57;96361.78;;;5.85;100.00
63907;BME280;50075;49.484;11.238;2024-02-26T07:31:22;96367.28;;;5.51;100.00
63907;BME280;50075;49.484;11.238;2024-02-26T07:33:48;96368.09;;;5.55;100.00
63907;BME280;50075;49.484;11.238;2024-02-26T07:36:13;96367.78;;;5.86;100.00
63907;BME280;50075;49.484;11.238;2024-02-26T07:38:38;96361.09;;;5.69;100.00
63907;BME280;50075;49.484;11.238;2024-02-26T07:41:04;96369.72;;;5.65;100.00
63907;BME280;50075;49.484;11.238;2024-02-26T07:43:30;96361.81;;;5.81;100.00
63907;BME280;50075;49.484;11.238;2024-02-26T07:45:55;96364.69;;;5.51;100.00
63907;BME280;50075;49.484;11.238;2024-02-26T07:48:21;96377.47;;;5.64;100.00
63907;BME280;50075;49.484;11.238;2024-02-26T07:50:46;96378.72;;;6.11;100.00
63907;BME280;50075;49.484;11.238;2024-02-26T07:53:11;96381.66;;;6.54;100.00
63907;BME280;50075;49.484;11.238;2024-02-26T07:55:37;96387.19;;;6.89;100.00
63907;BME280;50075;49.484;11.238;2024-02-26T07:58:02;96391.03;;;7.21;100.00
63907;BME280;50075;49.484;11.238;2024-02-26T08:00:28;96383.19;;;7.78;100.00
63907;BME280;50075;49.484;11.238;2024-02-26T08:02:53;96393.59;;;8.22;100.00
63907;BME280;50075;49.484;11.238;2024-02-26T08:05:18;96380.22;;;7.98;100.00
63907;BME280;50075;49.484;11.238;2024-02-26T08:07:44;96383.22;;;7.75;100.00
63907;BME280;50075;49.484;11.238;2024-02-26T08:10:09;96384.72;;;8.34;100.00
63907;BME280;50075;49.484;11.238;2024-02-26T08:12:36;96379.06;;;8.13;100.00
63907;BME280;50075;49.484;11.238;2024-02-26T08:15:01;96384.75;;;8.32;100.00
63907;BME280;50075;49.484;11.238;2024-02-26T08:17:27;96383.06;;;8.74;100.00
63907;BME280;50075;49.484;11.238;2024-02-26T08:19:52;96386.75;;;8.64;100.00
63907;BME280;50075;49.484;11.238;2024-02-26T08:22:18;96401.25;;;8.71;100.00
63907;BME280;50075;49.484;11.238;2024-02-26T08:24:43;96398.06;;;7.66;100.00
63907;BME280;50075;49.484;11.238;2024-02-26T08:27:09;96392.84;;;8.17;100.00
63907;BME280;50075;49.484;11.238;2024-02-26T08:29:34;96399.84;;;7.61;100.00
63907;BME280;50075;49.484;11.238;2024-02-26T08:31:59;96389.84;;;7.91;100.00
63907;BME280;50075;49.484;11.238;2024-02-26T08:34:25;96392.81;;;7.69;100.00
63907;BME280;50075;49.484;11.238;2024-02-26T08:36:51;96406.56;;;7.73;100.00
63907;BME280;50075;49.484;11.238;2024-02-26T08:39:16;96409.03;;;7.79;100.00
63907;BME280;50075;49.484;11.238;2024-02-26T08:41:45;96410.56;;;7.38;100.00
63907;BME280;50075;49.484;11.238;2024-02-26T08:44:10;96406.84;;;7.56;100.00
63907;BME280;50075;49.484;11.238;2024-02-26T08:46:36;96408.97;;;7.84;100.00
63907;BME280;50075;49.484;11.238;2024-02-26T08:49:01;96409.53;;;7.50;100.00
63907;BME280;50075;49.484;11.238;2024-02-26T08:51:27;96407.53;;;8.15;100.00
63907;BME280;50075;49.484;11.238;2024-02-26T08:53:52;96405.25;;;8.43;100.00
63907;BME280;50075;49.484;11.238;2024-02-26T08:56:19;96400.72;;;8.09;100.00
63907;BME280;50075;49.484;11.238;2024-02-26T08:58:45;96409.63;;;8.41;100.00
63907;BME280;50075;49.484;11.238;2024-02-26T09:01:11;96400.22;;;9.18;100.00
63907;BME280;50075;49.484;11.238;2024-02-26T09:03:36;96404.88;;;9.41;100.00
63907;BME280;50075;49.484;11.238;2024-02-26T09:06:02;96404.72;;;9.82;100.00
63907;BME280;50075;49.484;11.238;2024-02-26T09:08:27;96407.00;;;9.95;100.00
63907;BME280;50075;49.484;11.238;2024-02-26T09:10:53;96394.75;;;10.00;100.00
63907;BME280;50075;49.484;11.238;2024-02-26T09:13:18;96395.97;;;10.51;100.00
63907;BME280;50075;49.484;11.238;2024-02-26T09:15:44;96397.34;;;10.00;100.00
63907;BME280;50075;49.484;11.238;2024-02-26T09:18:09;96400.88;;;10.31;100.00
63907;BME280;50075;49.484;11.238;2024-02-26T09:20:35;96396.38;;;10.36;100.00
63907;BME280;50075;49.484;11.238;2024-02-26T09:23:00;96397.13;;;10.71;100.00
63907;BME280;50075;49.484;11.238;2024-02-26T09:25:26;96398.47;;;10.54;100.00
63907;BME280;50075;49.484;11.238;2024-02-26T09:27:52;96401.59;;;10.02;100.00
63907;BME280;50075;49.484;11.238;2024-02-26T09:30:17;96400.56;;;11.30;100.00
63907;BME280;50075;49.484;11.238;2024-02-26T09:32:46;96393.66;;;12.34;100.00
63907;BME280;50075;49.484;11.238;2024-02-26T09:35:12;96391.31;;;13.41;100.00
63907;BME280;50075;49.484;11.238;2024-02-26T09:37:38;96395.59;;;13.87;100.00
63907;BME280;50075;49.484;11.238;2024-02-26T09:40:04;96407.03;;;14.45;100.00
63907;BME280;50075;49.484;11.238;2024-02-26T09:42:31;96397.69;;;14.21;94.65
63907;BME280;50075;49.484;11.238;2024-02-26T09:45:00;96397.53;;;14.24;94.34
63907;BME280;50075;49.484;11.238;2024-02-26T09:47:28;96384.56;;;14.22;91.27
63907;BME280;50075;49.484;11.238;2024-02-26T09:49:55;96390.03;;;15.33;86.44
63907;BME280;50075;49.484;11.238;2024-02-26T09:52:21;96389.25;;;15.48;76.77
63907;BME280;50075;49.484;11.238;2024-02-26T09:54:49;96392.13;;;15.07;75.84
63907;BME280;50075;49.484;11.238;2024-02-26T09:57:15;96383.81;;;14.58;77.94
63907;BME280;50075;49.484;11.238;2024-02-26T09:59:42;96384.03;;;14.14;75.91
63907;BME280;50075;49.484;11.238;2024-02-26T10:02:12;96395.25;;;11.61;89.98
63907;BME280;50075;49.484;11.238;2024-02-26T10:04:41;96384.28;;;11.24;100.00
63907;BME280;50075;49.484;11.238;2024-02-26T10:07:11;96390.41;;;11.21;100.00
63907;BME280;50075;49.484;11.238;2024-02-26T10:09:37;96382.38;;;11.02;100.00
63907;BME280;50075;49.484;11.238;2024-02-26T10:12:08;96368.50;;;11.28;100.00
63907;BME280;50075;49.484;11.238;2024-02-26T10:14:35;96362.13;;;11.10;100.00
63907;BME280;50075;49.484;11.238;2024-02-26T10:17:01;96362.94;;;10.55;100.00
63907;BME280;50075;49.484;11.238;2024-02-26T10:19:30;96366.59;;;10.16;100.00
63907;BME280;50075;49.484;11.238;2024-02-26T10:22:00;96369.13;;;10.19;100.00
63907;BME280;50075;49.484;11.238;2024-02-26T10:24:26;96378.84;;;10.12;100.00
63907;BME280;50075;49.484;11.238;2024-02-26T10:26:52;96376.72;;;10.25;100.00
63907;BME280;50075;49.484;11.238;2024-02-26T10:29:18;96378.50;;;10.57;100.00
63907;BME280;50075;49.484;11.238;2024-02-26T10:31:44;96375.22;;;11.09;100.00
63907;BME280;50075;49.484;11.238;2024-02-26T10:34:10;96376.16;;;12.13;100.00
63907;BME280;50075;49.484;11.238;2024-02-26T10:36:35;96381.97;;;12.91;95.38
63907;BME280;50075;49.484;11.238;2024-02-26T10:39:03;96385.75;;;13.06;89.50
63907;BME280;50075;49.484;11.238;2024-02-26T10:41:30;96394.56;;;13.48;89.92
63907;BME280;50075;49.484;11.238;2024-02-26T10:43:55;96393.34;;;13.35;85.40
63907;BME280;50075;49.484;11.238;2024-02-26T10:46:20;96390.63;;;13.60;85.64
63907;BME280;50075;49.484;11.238;2024-02-26T10:48:50;96390.72;;;13.35;92.14
63907;BME280;50075;49.484;11.238;2024-02-26T10:51:20;96397.47;;;13.40;80.94
63907;BME280;50075;49.484;11.238;2024-02-26T10:53:47;96403.78;;;13.35;88.43
63907;BME280;50075;49.484;11.238;2024-02-26T10:56:15;96402.47;;;13.47;81.84
63907;BME280;50075;49.484;11.238;2024-02-26T10:58:42;96397.63;;;14.01;84.61
63907;BME280;50075;49.484;11.238;2024-02-26T11:01:11;96404.91;;;13.51;81.75
63907;BME280;50075;49.484;11.238;2024-02-26T11:03:38;96410.63;;;13.37;77.75
63907;BME280;50075;49.484;11.238;2024-02-26T11:06:04;96409.75;;;13.82;81.28
63907;BME280;50075;49.484;11.238;2024-02-26T11:08:31;96403.50;;;13.20;75.14
63907;BME280;50075;49.484;11.238;2024-02-26T11:10:57;96400.44;;;13.31;79.14
63907;BME280;50075;49.484;11.238;2024-02-26T11:13:27;96401.59;;;13.46;77.20
63907;BME280;50075;49.484;11.238;2024-02-26T11:15:56;96406.66;;;13.28;81.87
63907;BME280;50075;49.484;11.238;2024-02-26T11:18:23;96410.13;;;13.29;76.92
63907;BME280;50075;49.484;11.238;2024-02-26T11:20:49;96418.78;;;13.95;83.56
63907;BME280;50075;49.484;11.238;2024-02-26T11:23:15;96419.50;;;14.80;74.62
63907;BME280;50075;49.484;11.238;2024-02-26T11:25:41;96413.16;;;14.25;70.90
63907;BME280;50075;49.484;11.238;2024-02-26T11:28:11;96418.94;;;14.53;72.24
63907;BME280;50075;49.484;11.238;2024-02-26T11:30:41;96424.19;;;14.32;77.84
63907;BME280;50075;49.484;11.238;2024-02-26T11:33:09;96419.06;;;14.90;75.11
63907;BME280;50075;49.484;11.238;2024-02-26T11:35:38;96412.06;;;15.09;79.62
63907;BME280;50075;49.484;11.238;2024-02-26T11:38:04;96412.22;;;15.06;67.07
63907;BME280;50075;49.484;11.238;2024-02-26T11:40:32;96417.53;;;16.14;76.05
63907;BME280;50075;49.484;11.238;2024-02-26T11:42:58;96409.34;;;16.54;63.64
63907;BME280;50075;49.484;11.238;2024-02-26T11:48:14;96407.78;;;15.63;59.24
63907;BME280;50075;49.484;11.238;2024-02-26T11:50:41;96407.25;;;16.27;57.88
63907;BME280;50075;49.484;11.238;2024-02-26T11:53:26;96411.59;;;16.10;64.75
63907;BME280;50075;49.484;11.238;2024-02-26T11:58:43;96406.72;;;15.67;63.09
63907;BME280;50075;49.484;11.238;2024-02-26T12:01:44;96408.44;;;14.74;62.46
63907;BME280;50075;49.484;11.238;2024-02-26T12:04:16;96412.53;;;15.37;73.61
63907;BME280;50075;49.484;11.238;2024-02-26T12:07:04;96409.38;;;15.11;66.27
63907;BME280;50075;49.484;11.238;2024-02-26T12:11:56;96416.38;;;14.91;93.73
63907;BME280;50075;49.484;11.238;2024-02-26T12:14:25;96413.47;;;14.38;70.36
63907;BME280;50075;49.484;11.238;2024-02-26T12:16:51;96413.13;;;14.46;76.66
63907;BME280;50075;49.484;11.238;2024-02-26T12:19:17;96411.94;;;14.13;68.14
63907;BME280;50075;49.484;11.238;2024-02-26T12:21:43;96419.38;;;13.81;72.69
63907;BME280;50075;49.484;11.238;2024-02-26T12:24:13;96411.72;;;13.76;70.82
63907;BME280;50075;49.484;11.238;2024-02-26T12:26:40;96416.78;;;13.36;68.89
63907;BME280;50075;49.484;11.238;2024-02-26T12:29:06;96412.09;;;13.45;72.22
63907;BME280;50075;49.484;11.238;2024-02-26T12:31:34;96418.53;;;13.80;100.00
63907;BME280;50075;49.484;11.238;2024-02-26T12:34:02;96417.66;;;13.80;100.00
63907;BME280;50075;49.484;11.238;2024-02-26T12:36:28;96413.94;;;13.65;100.00
63907;BME280;50075;49.484;11.238;2024-02-26T12:38:54;96417.63;;;13.37;81.90
63907;BME280;50075;49.484;11.238;2024-02-26T12:41:20;96425.03;;;13.25;79.82
63907;BME280;50075;49.484;11.238;2024-02-26T12:43:46;96427.22;;;13.36;78.43
63907;BME280;50075;49.484;11.238;2024-02-26T12:46:12;96424.53;;;12.93;77.30
63907;BME280;50075;49.484;11.238;2024-02-26T12:48:38;96422.34;;;12.82;83.53
63907;BME280;50075;49.484;11.238;2024-02-26T12:51:05;96419.63;;;13.08;75.86
63907;BME280;50075;49.484;11.238;2024-02-26T12:53:31;96415.78;;;12.94;73.20